Time;durP1;ratioP1;P1;durP2;ratioP2;P2;SDS_P1;SDS_P2;PMS_P1;PMS_P2;Temp;Humidity;BMP_temperature;BMP_pressure;BME280_temperature;BME280_humidity;BME280_pressure;Samples;Min_cycle;Max_cycle;Signal;HPM_P1;HPM_P2
2023/04/07 00:01:02;;;;;;;10.30;8.90;;;;;;;9.74;86.75;98164.97;4184241;28;20698;-82
2023/04/07 00:03:06;;;;;;;11.40;9.10;;;;;;;9.72;87.80;98159.06;4188549;28;20646;-82
2023/04/07 00:05:09;;;;;;;9.63;8.43;;;;;;;9.67;87.65;98158.53;4184096;28;20702;-82
2023/04/07 00:07:13;;;;;;;12.30;10.20;;;;;;;9.65;87.39;98161.22;4185349;28;20636;-82
2023/04/07 00:09:16;;;;;;;10.40;9.20;;;;;;;9.58;87.94;98153.91;4188029;28;20676;-82
2023/04/07 00:11:19;;;;;;;10.37;9.20;;;;;;;9.57;88.95;98150.44;4173385;28;21531;-82
2023/04/07 00:13:22;;;;;;;11.20;9.30;;;;;;;9.57;88.06;98147.00;4189903;28;20625;-82
2023/04/07 00:15:25;;;;;;;11.33;8.73;;;;;;;9.55;87.67;98152.31;4205382;28;20708;-82
2023/04/07 00:17:30;;;;;;;12.87;9.70;;;;;;;9.52;88.86;98143.88;4185194;28;20628;-82
2023/04/07 00:19:33;;;;;;;9.30;8.27;;;;;;;9.50;88.17;98146.56;4185231;28;20727;-82
2023/04/07 00:21:36;;;;;;;10.67;8.83;;;;;;;9.48;88.79;98143.19;4188029;28;20644;-82
2023/04/07 00:23:39;;;;;;;9.10;7.77;;;;;;;9.49;88.30;98141.47;4201753;28;20739;-82
2023/04/07 00:25:42;;;;;;;10.13;8.97;;;;;;;9.49;89.46;98141.47;4189281;28;21210;-82
2023/04/07 00:27:45;;;;;;;12.17;9.20;;;;;;;9.45;88.90;98134.75;4186301;28;21190;-82
2023/04/07 00:29:49;;;;;;;12.10;8.90;;;;;;;9.40;89.55;98131.63;4179161;28;21211;-81
2023/04/07 00:31:52;;;;;;;14.03;9.63;;;;;;;9.39;89.84;98132.53;4181371;28;20717;-82
2023/04/07 00:33:56;;;;;;;11.00;9.80;;;;;;;9.39;89.73;98125.56;4199632;28;21236;-82
2023/04/07 00:36:01;;;;;;;9.03;7.90;;;;;;;9.41;89.45;98123.72;4179376;28;20627;-82
2023/04/07 00:38:04;;;;;;;10.17;8.20;;;;;;;9.40;89.54;98122.03;4181753;28;20806;-82
2023/04/07 00:40:08;;;;;;;9.90;8.90;;;;;;;9.40;88.91;98116.84;4181229;28;21190;-82
2023/04/07 00:42:11;;;;;;;11.30;8.77;;;;;;;9.38;89.03;98110.91;4179760;28;21005;-82
2023/04/07 00:44:14;;;;;;;12.07;8.40;;;;;;;9.35;90.01;98107.66;4169777;28;20733;-82
2023/04/07 00:46:18;;;;;;;12.33;8.77;;;;;;;9.26;89.27;98105.63;4181778;28;21180;-81
2023/04/07 00:48:22;;;;;;;11.07;8.83;;;;;;;9.26;89.07;98107.38;4164365;28;20633;-82
2023/04/07 00:50:26;;;;;;;11.80;8.90;;;;;;;9.28;89.28;98106.38;4185053;28;20643;-82
2023/04/07 00:52:29;;;;;;;10.17;8.80;;;;;;;9.28;88.82;98100.34;4158558;28;20666;-82
2023/04/07 00:54:32;;;;;;;8.70;7.43;;;;;;;9.24;89.26;98094.47;4162592;28;20649;-82
2023/04/07 00:56:36;;;;;;;8.97;7.60;;;;;;;9.25;87.90;98103.13;4187924;28;20689;-82
2023/04/07 00:58:39;;;;;;;9.23;7.90;;;;;;;9.24;88.95;98094.47;4179965;28;20647;-82
2023/04/07 01:00:47;;;;;;;10.13;8.10;;;;;;;9.25;87.70;98088.34;4183977;28;20633;-82
2023/04/07 01:02:55;;;;;;;10.87;8.10;;;;;;;9.23;88.70;98092.81;4165853;28;21223;-82
2023/04/07 01:05:07;;;;;;;9.63;7.90;;;;;;;9.16;88.18;98083.72;4190076;28;21263;-82
2023/04/07 01:07:16;;;;;;;10.00;7.87;;;;;;;9.18;89.67;98088.81;4184090;28;20631;-82
2023/04/07 01:09:28;;;;;;;10.37;8.20;;;;;;;9.20;89.48;98086.94;4189022;28;20643;-82
2023/04/07 01:11:42;;;;;;;9.60;7.30;;;;;;;9.19;89.37;98080.94;4180123;28;20702;-82
2023/04/07 01:13:51;;;;;;;9.20;7.30;;;;;;;9.19;88.32;98075.72;4175306;28;20697;-82
2023/04/07 01:16:11;;;;;;;8.97;7.33;;;;;;;9.16;88.90;98075.09;4182660;28;21132;-82
2023/04/07 01:18:22;;;;;;;10.03;7.93;;;;;;;9.17;87.95;98072.38;4194126;28;21087;-82
2023/04/07 01:20:27;;;;;;;10.20;7.93;;;;;;;9.15;88.63;98069.03;4181526;28;20651;-82
2023/04/07 01:22:41;;;;;;;9.90;7.53;;;;;;;9.16;87.76;98070.72;4181046;28;20644;-82
2023/04/07 01:25:06;;;;;;;11.65;7.63;;;;;;;9.22;87.91;98070.31;4187015;28;20637;-82
2023/04/07 01:27:20;;;;;;;11.18;7.75;;;;;;;9.21;88.35;98060.84;4174527;28;20648;-82
2023/04/07 01:29:31;;;;;;;9.33;7.30;;;;;;;9.22;87.81;98054.72;4187114;28;20207;-82
2023/04/07 01:31:34;;;;;;;9.70;6.83;;;;;;;9.22;88.86;98053.88;4185906;28;20683;-82
2023/04/07 01:33:39;;;;;;;7.70;6.60;;;;;;;9.23;89.01;98056.41;4174580;28;20680;-82
2023/04/07 01:35:43;;;;;;;8.73;6.50;;;;;;;9.25;88.10;98053.69;4175869;28;21274;-82
2023/04/07 01:37:47;;;;;;;8.40;7.32;;;;;;;9.25;88.44;98051.09;4168752;28;20613;-82
2023/04/07 01:39:50;;;;;;;7.90;6.57;;;;;;;9.26;88.05;98052.75;4185577;28;20771;-82
2023/04/07 01:41:54;;;;;;;9.63;7.00;;;;;;;9.26;87.82;98051.00;4171305;28;21234;-82
2023/04/07 01:43:58;;;;;;;9.10;6.60;;;;;;;9.27;87.18;98057.84;4179516;28;20257;-82
2023/04/07 01:46:03;;;;;;;8.80;7.27;;;;;;;9.28;86.59;98049.13;4189316;28;21184;-82
2023/04/07 01:48:07;;;;;;;9.40;6.70;;;;;;;9.30;86.46;98052.44;4188700;28;20623;-82
2023/04/07 01:50:11;;;;;;;7.82;6.63;;;;;;;9.27;87.81;98046.63;4170973;28;20640;-82
2023/04/07 01:52:15;;;;;;;8.57;7.50;;;;;;;9.28;86.14;98048.28;4188135;28;20222;-82
2023/04/07 01:54:18;;;;;;;9.27;7.07;;;;;;;9.27;87.79;98041.41;4193047;28;20785;-82
2023/04/07 01:56:21;;;;;;;9.00;6.77;;;;;;;9.27;87.36;98038.81;4168689;28;20661;-82
2023/04/07 01:58:27;;;;;;;7.40;6.07;;;;;;;9.28;86.59;98040.50;4174419;28;20638;-81
2023/04/07 02:00:31;;;;;;;8.40;6.63;;;;;;;9.24;86.42;98028.59;4186780;28;20636;-82
2023/04/07 02:02:41;;;;;;;9.60;7.23;;;;;;;9.19;87.37;98039.28;4175449;28;20735;-82
2023/04/07 02:04:49;;;;;;;10.27;7.05;;;;;;;9.19;87.60;98036.69;4186485;28;20659;-81
2023/04/07 02:06:55;;;;;;;8.10;7.13;;;;;;;9.13;87.62;98034.47;4176860;28;20629;-82
2023/04/07 02:09:10;;;;;;;9.83;7.40;;;;;;;9.13;86.46;98033.66;4163569;28;21144;-82
2023/04/07 02:11:15;;;;;;;8.60;7.40;;;;;;;9.16;87.27;98031.69;4167833;28;20727;-82
2023/04/07 02:13:20;;;;;;;8.50;6.60;;;;;;;9.16;86.15;98031.69;4189396;28;20651;-81
2023/04/07 02:15:26;;;;;;;10.07;7.07;;;;;;;9.15;86.53;98029.19;4190834;28;20641;-82
2023/04/07 02:17:29;;;;;;;10.27;7.00;;;;;;;9.15;87.53;98031.78;4168690;28;20730;-82
2023/04/07 02:19:34;;;;;;;8.82;6.60;;;;;;;9.17;86.08;98025.56;4188644;28;20636;-81
2023/04/07 02:21:40;;;;;;;9.03;7.10;;;;;;;9.17;87.32;98020.34;4187175;28;20808;-81
2023/04/07 02:23:43;;;;;;;9.50;7.77;;;;;;;9.20;86.15;98021.91;4187378;28;20712;-82
2023/04/07 02:25:46;;;;;;;8.93;7.63;;;;;;;9.19;87.39;98017.66;4184687;28;20689;-82
2023/04/07 02:27:49;;;;;;;10.68;7.30;;;;;;;9.20;86.18;98017.56;4191281;28;21088;-82
2023/04/07 02:29:54;;;;;;;8.00;6.80;;;;;;;9.21;86.98;98016.59;4173337;28;20210;-81
2023/04/07 02:31:58;;;;;;;9.63;7.22;;;;;;;9.26;86.40;98019.78;4174466;28;21251;-82
2023/04/07 02:34:04;;;;;;;9.00;7.47;;;;;;;9.25;86.70;98015.50;4186752;28;20300;-82
2023/04/07 02:36:09;;;;;;;8.70;7.33;;;;;;;9.27;86.40;98018.81;4169236;28;20671;-82
2023/04/07 02:38:12;;;;;;;10.43;7.83;;;;;;;9.28;86.96;98010.09;4186567;28;20827;-82
2023/04/07 02:40:15;;;;;;;9.57;7.43;;;;;;;9.31;87.23;98011.66;4166131;28;21050;-81
2023/04/07 02:42:19;;;;;;;10.20;7.40;;;;;;;9.32;86.86;98008.13;4187938;28;21100;-82
2023/04/07 02:44:23;;;;;;;10.93;8.00;;;;;;;9.32;86.80;98010.72;4184245;28;20638;-82
2023/04/07 02:46:26;;;;;;;8.77;7.37;;;;;;;9.34;86.61;98007.09;4185521;28;21250;-82
2023/04/07 02:48:29;;;;;;;11.20;7.83;;;;;;;9.36;87.43;98010.41;4195221;28;20643;-82
2023/04/07 02:50:32;;;;;;;9.60;7.60;;;;;;;9.38;87.94;97997.31;4189989;28;20663;-82
2023/04/07 02:52:37;;;;;;;9.60;7.70;;;;;;;9.38;87.03;98004.19;4199389;28;20676;-82
2023/04/07 02:54:46;;;;;;;9.10;7.03;;;;;;;9.39;88.15;98008.44;4179052;28;20632;-82
2023/04/07 02:56:50;;;;;;;10.83;7.80;;;;;;;9.41;87.74;98008.34;4173985;28;20655;-81
2023/04/07 02:58:53;;;;;;;10.00;7.87;;;;;;;9.40;87.15;97998.88;4170960;28;21195;-82
2023/04/07 03:00:57;;;;;;;9.63;8.10;;;;;;;9.39;87.34;98005.84;4189762;28;20642;-82
2023/04/07 03:03:04;;;;;;;9.07;7.20;;;;;;;9.41;88.18;97992.72;4194565;28;20652;-82
2023/04/07 03:05:11;;;;;;;10.90;8.47;;;;;;;9.42;86.64;97995.22;4192797;28;20690;-82
2023/04/07 03:07:14;;;;;;;9.93;7.27;;;;;;;9.40;88.23;97986.69;4194560;28;20647;-82
2023/04/07 03:09:19;;;;;;;10.90;7.87;;;;;;;9.43;88.34;97991.72;4197624;28;21280;-82
2023/04/07 03:11:22;;;;;;;9.27;7.73;;;;;;;9.39;87.31;97992.00;4190272;28;20644;-82
2023/04/07 03:13:28;;;;;;;10.40;8.17;;;;;;;9.38;88.01;97986.91;4176171;28;20664;-82
2023/04/07 03:15:31;;;;;;;10.13;7.50;;;;;;;9.38;87.62;97995.53;4192373;28;20987;-82
2023/04/07 03:17:35;;;;;;;11.30;8.20;;;;;;;9.38;88.86;97987.72;4192611;28;20730;-82
2023/04/07 03:19:39;;;;;;;10.07;8.77;;;;;;;9.38;89.10;97992.09;4193997;28;20635;-82
2023/04/07 03:21:43;;;;;;;9.77;7.80;;;;;;;9.38;87.36;97986.91;4174852;28;20728;-82
2023/04/07 03:23:46;;;;;;;9.80;8.37;;;;;;;9.38;87.39;97991.19;4191793;28;20651;-82
2023/04/07 03:25:51;;;;;;;9.73;8.13;;;;;;;9.39;87.20;97989.41;4193441;28;21075;-82
2023/04/07 03:27:54;;;;;;;10.47;8.60;;;;;;;9.39;88.16;97985.03;4167294;28;20661;-82
2023/04/07 03:29:59;;;;;;;10.40;8.50;;;;;;;9.40;88.24;97986.69;4209782;28;20630;-82
2023/04/07 03:32:04;;;;;;;11.70;9.10;;;;;;;9.38;89.09;97985.97;4176232;28;21197;-82
2023/04/07 03:34:08;;;;;;;10.07;8.50;;;;;;;9.37;89.38;97986.06;4187087;28;20645;-82
2023/04/07 03:36:12;;;;;;;12.03;8.17;;;;;;;9.36;90.14;97983.56;4185025;28;20632;-82
2023/04/07 03:38:16;;;;;;;10.40;8.13;;;;;;;9.35;89.33;97982.75;4178990;28;20654;-82
2023/04/07 03:40:20;;;;;;;10.00;8.27;;;;;;;9.37;90.03;97985.22;4188004;28;20668;-82
2023/04/07 03:42:25;;;;;;;10.57;8.90;;;;;;;9.35;90.89;97981.91;4165467;28;20629;-82
2023/04/07 03:44:35;;;;;;;11.13;8.50;;;;;;;9.31;90.96;97972.63;4184542;28;20655;-82
2023/04/07 03:46:38;;;;;;;13.53;8.97;;;;;;;9.30;90.66;97974.38;4189656;28;20635;-82
2023/04/07 03:48:41;;;;;;;10.57;8.80;;;;;;;9.31;92.11;97976.06;4192042;28;21047;-82
2023/04/07 03:50:46;;;;;;;10.30;8.80;;;;;;;9.27;92.11;97974.59;4172291;28;20628;-81
2023/04/07 03:52:52;;;;;;;11.03;8.33;;;;;;;9.24;90.87;97974.78;4182468;28;20659;-82
2023/04/07 03:54:59;;;;;;;11.30;8.23;;;;;;;9.21;91.63;97977.59;4187331;28;20666;-82
2023/04/07 03:57:06;;;;;;;11.13;8.67;;;;;;;9.16;91.32;97969.25;4172240;28;20632;-81
2023/04/07 03:59:16;;;;;;;11.30;8.80;;;;;;;9.12;92.24;97965.16;4192103;28;20630;-81
2023/04/07 04:01:30;;;;;;;12.53;8.93;;;;;;;9.10;90.95;97971.41;4187105;28;20647;-81
2023/04/07 04:03:42;;;;;;;11.10;8.50;;;;;;;9.09;92.32;97974.94;4187415;28;21177;-81
2023/04/07 04:05:56;;;;;;;11.83;8.97;;;;;;;9.09;92.64;97964.53;4173200;28;20736;-81
2023/04/07 04:08:10;;;;;;;14.30;9.90;;;;;;;9.07;92.54;97969.84;4191038;28;21205;-81
2023/04/07 04:10:15;;;;;;;11.90;8.80;;;;;;;9.07;92.59;97972.44;4191066;28;21133;-81
2023/04/07 04:12:22;;;;;;;12.90;9.17;;;;;;;9.07;91.38;97971.63;4196275;28;20854;-81
2023/04/07 04:14:38;;;;;;;12.83;9.27;;;;;;;9.10;91.34;97967.03;4182043;28;20706;-81
2023/04/07 04:16:43;;;;;;;12.60;9.47;;;;;;;9.11;92.66;97968.72;4190478;28;21101;-81
2023/04/07 04:18:59;;;;;;;12.10;8.80;;;;;;;9.11;91.68;97967.88;4192997;28;20686;-81
2023/04/07 04:21:05;;;;;;;11.33;9.30;;;;;;;9.10;92.24;97967.03;4172846;28;20666;-81
2023/04/07 04:23:09;;;;;;;12.33;9.53;;;;;;;9.06;91.19;97970.75;4176097;28;20654;-81
2023/04/07 04:25:12;;;;;;;11.50;9.00;;;;;;;9.04;92.07;97972.63;4187585;28;20644;-81
2023/04/07 04:27:21;;;;;;;12.13;9.27;;;;;;;9.03;91.26;97968.34;4174974;28;20671;-81
2023/04/07 04:29:29;;;;;;;11.80;9.33;;;;;;;9.02;92.33;97968.47;4184274;28;20688;-81
2023/04/07 04:31:37;;;;;;;15.13;9.10;;;;;;;9.00;91.17;97965.94;4185566;28;21038;-81
2023/04/07 04:33:40;;;;;;;12.93;9.57;;;;;;;8.97;92.65;97966.16;4171406;28;20661;-81
2023/04/07 04:35:45;;;;;;;12.33;10.10;;;;;;;8.96;92.75;97964.50;4186220;28;20640;-81
2023/04/07 04:37:51;;;;;;;14.10;10.20;;;;;;;8.92;92.85;97965.63;4193700;28;20639;-81
2023/04/07 04:39:54;;;;;;;12.20;10.03;;;;;;;8.95;91.75;97962.81;4193257;28;20766;-81
2023/04/07 04:42:00;;;;;;;16.07;11.40;;;;;;;8.95;92.68;97965.41;4175701;28;20728;-81
2023/04/07 04:44:08;;;;;;;13.77;10.13;;;;;;;8.97;92.48;97971.34;4165373;28;20655;-81
2023/04/07 04:46:14;;;;;;;11.60;9.50;;;;;;;8.97;91.20;97971.34;4171188;28;20636;-81
2023/04/07 04:48:20;;;;;;;12.40;9.77;;;;;;;8.96;91.96;97966.28;4186110;28;20743;-81
2023/04/07 04:50:23;;;;;;;15.63;10.50;;;;;;;8.94;91.61;97971.56;4169955;28;20731;-81
2023/04/07 04:52:27;;;;;;;13.17;10.07;;;;;;;8.94;92.38;97970.72;4184210;28;21048;-82
2023/04/07 04:54:31;;;;;;;13.23;9.93;;;;;;;8.97;92.55;97971.34;4186053;28;20739;-81
2023/04/07 04:56:35;;;;;;;14.03;10.87;;;;;;;8.96;93.25;97967.09;4181333;28;20653;-82
2023/04/07 04:58:41;;;;;;;13.70;10.17;;;;;;;9.00;93.51;97971.16;4195099;28;20978;-82
2023/04/07 05:00:45;;;;;;;13.80;9.70;;;;;;;9.03;93.23;97964.94;4170779;28;21015;-82
2023/04/07 05:02:49;;;;;;;14.33;10.33;;;;;;;9.06;91.55;97969.94;4184521;28;20637;-81
2023/04/07 05:04:54;;;;;;;12.57;10.20;;;;;;;9.08;92.03;97968.91;4168909;28;20648;-82
2023/04/07 05:07:01;;;;;;;12.70;9.90;;;;;;;9.10;92.21;97966.22;4180932;28;21140;-81
2023/04/07 05:09:06;;;;;;;14.68;12.00;;;;;;;9.15;91.21;97958.94;4184607;28;21339;-81
2023/04/07 05:11:16;;;;;;;15.40;11.03;;;;;;;9.21;92.32;97966.34;4191721;28;20239;-81
2023/04/07 05:13:24;;;;;;;13.43;10.23;;;;;;;9.21;92.61;97961.97;4168408;28;20628;-81
2023/04/07 05:15:28;;;;;;;15.00;11.30;;;;;;;9.24;92.13;97958.34;4174013;28;21195;-81
2023/04/07 05:17:32;;;;;;;13.53;10.43;;;;;;;9.29;92.11;97966.69;4172168;28;20648;-82
2023/04/07 05:19:36;;;;;;;14.67;10.10;;;;;;;9.30;92.35;97961.38;4191580;28;21264;-82
2023/04/07 05:21:48;;;;;;;14.60;10.10;;;;;;;9.32;93.30;97974.28;4188292;28;20966;-81
2023/04/07 05:23:53;;;;;;;12.33;10.30;;;;;;;9.32;93.18;97969.94;4178047;28;21200;-81
2023/04/07 05:25:58;;;;;;;11.83;10.00;;;;;;;9.30;92.30;97961.38;4173872;28;20728;-81
2023/04/07 05:28:01;;;;;;;12.83;10.43;;;;;;;9.27;93.21;97958.97;4171480;28;20747;-82
2023/04/07 05:30:05;;;;;;;13.60;9.27;;;;;;;9.27;92.40;97958.16;4186957;28;20658;-81
2023/04/07 05:32:10;;;;;;;12.32;10.20;;;;;;;9.26;92.78;97964.28;4184645;28;20743;-82
2023/04/07 05:34:13;;;;;;;11.77;9.70;;;;;;;9.26;92.97;97961.66;4168805;28;20225;-81
2023/04/07 05:36:22;;;;;;;13.30;10.57;;;;;;;9.25;93.03;97962.63;4185742;28;20661;-81
2023/04/07 05:38:31;;;;;;;12.93;10.05;;;;;;;9.24;93.37;97964.38;4183536;28;21063;-81
2023/04/07 05:40:41;;;;;;;11.37;8.90;;;;;;;9.24;93.09;97960.94;4167179;28;20210;-81
2023/04/07 05:42:49;;;;;;;13.37;9.70;;;;;;;9.21;94.27;97961.97;4176378;28;20640;-81
2023/04/07 05:44:53;;;;;;;11.87;9.60;;;;;;;9.21;94.38;97964.56;4183875;28;20610;-82
2023/04/07 05:46:58;;;;;;;14.20;10.80;;;;;;;9.19;93.12;97966.44;4181487;28;20754;-82
2023/04/07 05:49:03;;;;;;;15.23;9.80;;;;;;;9.19;94.66;97974.25;4181329;28;20633;-82
2023/04/07 05:51:26;;;;;;;12.80;9.40;;;;;;;9.19;94.35;97969.06;4179996;28;20726;-82
2023/04/07 05:53:32;;;;;;;14.97;10.40;;;;;;;9.19;93.88;97963.84;4188097;28;20633;-81
2023/04/07 05:55:35;;;;;;;13.07;10.40;;;;;;;9.19;94.99;97968.22;4185550;28;20738;-81
2023/04/07 05:57:40;;;;;;;14.30;10.77;;;;;;;9.20;94.94;97967.28;4171874;28;20656;-81
2023/04/07 05:59:45;;;;;;;12.77;9.83;;;;;;;9.20;94.77;97968.13;4183746;28;21195;-82
2023/04/07 06:01:49;;;;;;;12.83;9.63;;;;;;;9.20;95.03;97969.88;4185195;28;20741;-81
2023/04/07 06:03:53;;;;;;;13.93;10.93;;;;;;;9.20;94.59;97975.06;4174941;28;20712;-81
2023/04/07 06:05:59;;;;;;;14.02;9.82;;;;;;;9.21;95.42;97974.16;4197979;28;21190;-81
2023/04/07 06:08:02;;;;;;;12.10;9.30;;;;;;;9.23;95.31;97970.53;4199322;28;20607;-81
2023/04/07 06:10:08;;;;;;;13.23;9.63;;;;;;;9.25;94.47;97960.84;4177596;28;21504;-82
2023/04/07 06:12:12;;;;;;;13.13;10.93;;;;;;;9.25;95.71;97966.06;4188028;28;20639;-81
2023/04/07 06:14:15;;;;;;;12.63;10.07;;;;;;;9.28;95.44;97971.06;4171979;28;20637;-81
2023/04/07 06:16:19;;;;;;;13.97;11.63;;;;;;;9.31;94.62;97967.44;4170586;28;20621;-82
2023/04/07 06:18:22;;;;;;;13.13;10.23;;;;;;;9.34;95.06;97975.88;4182720;28;20674;-82
2023/04/07 06:20:26;;;;;;;13.93;11.00;;;;;;;9.37;94.42;97980.88;4188082;28;21033;-82
2023/04/07 06:22:29;;;;;;;16.10;11.50;;;;;;;9.38;94.37;97978.16;4190245;28;21014;-81
2023/04/07 06:24:32;;;;;;;15.07;10.80;;;;;;;9.41;95.28;97977.09;4199182;28;20708;-82
2023/04/07 06:26:37;;;;;;;15.27;10.80;;;;;;;9.45;94.59;97973.38;4189481;28;20666;-82
2023/04/07 06:28:40;;;;;;;16.17;12.07;;;;;;;9.45;94.93;97981.19;4184453;28;20644;-82
2023/04/07 06:30:43;;;;;;;16.63;11.30;;;;;;;9.45;94.67;97976.81;4183169;28;20644;-82
2023/04/07 06:32:48;;;;;;;15.87;11.70;;;;;;;9.46;93.83;97975.88;4181320;28;21211;-81
2023/04/07 06:34:51;;;;;;;12.43;10.90;;;;;;;9.47;93.71;97981.91;4192925;28;20743;-82
2023/04/07 06:36:55;;;;;;;15.87;11.30;;;;;;;9.50;93.50;97979.97;4172116;28;20667;-81
2023/04/07 06:39:01;;;;;;;20.80;15.77;;;;;;;9.56;94.06;97989.13;4189717;28;21064;-81
2023/04/07 06:41:05;;;;;;;14.60;11.50;;;;;;;9.58;93.94;97988.09;4185550;28;20632;-81
2023/04/07 06:43:09;;;;;;;15.07;11.77;;;;;;;9.59;94.03;97981.97;4184429;28;20640;-82
2023/04/07 06:45:17;;;;;;;19.27;13.13;;;;;;;9.65;93.47;97988.50;4187048;28;20642;-80
2023/04/07 06:47:20;;;;;;;14.07;11.60;;;;;;;9.68;93.66;97980.50;4188787;28;20619;-84
2023/04/07 06:49:23;;;;;;;15.73;11.43;;;;;;;9.71;94.00;97982.91;4185336;28;20690;-83
2023/04/07 06:51:26;;;;;;;15.03;11.50;;;;;;;9.74;93.79;97986.16;4186714;28;20724;-81
2023/04/07 06:53:29;;;;;;;14.77;12.13;;;;;;;9.79;93.41;97980.63;4184668;28;20626;-81
2023/04/07 06:55:32;;;;;;;14.90;11.63;;;;;;;9.83;93.32;97977.69;4183218;28;20653;-81
2023/04/07 06:57:36;;;;;;;15.53;12.30;;;;;;;9.83;93.26;97972.50;4174869;28;20678;-82
2023/04/07 06:59:40;;;;;;;15.77;11.67;;;;;;;9.87;92.43;97974.78;4182609;28;20655;-81
2023/04/07 07:01:44;;;;;;;14.27;11.90;;;;;;;9.93;92.34;97976.16;4183302;28;22872;-81
2023/04/07 07:03:47;;;;;;;15.07;11.43;;;;;;;9.95;91.86;97976.91;4183830;28;20667;-82
2023/04/07 07:05:51;;;;;;;14.50;11.87;;;;;;;10.02;91.57;97976.41;4185313;28;20695;-80
2023/04/07 07:07:56;;;;;;;17.30;13.07;;;;;;;10.07;91.31;97981.28;4188762;28;21271;-82
2023/04/07 07:09:59;;;;;;;19.57;13.53;;;;;;;10.12;91.50;97974.84;4183726;28;20627;-81
2023/04/07 07:12:03;;;;;;;15.83;12.10;;;;;;;10.17;91.85;97974.53;4187432;28;21011;-79
2023/04/07 07:14:06;;;;;;;15.80;11.97;;;;;;;10.20;91.04;97977.75;4184783;28;20723;-78
2023/04/07 07:16:11;;;;;;;15.70;12.77;;;;;;;10.24;90.91;97975.75;4181528;28;20650;-79
2023/04/07 07:18:15;;;;;;;14.13;11.37;;;;;;;10.31;91.40;97980.44;4187059;28;21188;-79
2023/04/07 07:20:18;;;;;;;12.57;10.90;;;;;;;10.35;90.61;97974.09;4186879;28;21001;-80
2023/04/07 07:22:21;;;;;;;14.60;11.80;;;;;;;10.40;90.56;97977.19;4191863;28;21488;-80
2023/04/07 07:24:24;;;;;;;14.47;11.43;;;;;;;10.41;89.26;97974.50;4187849;28;21254;-80
2023/04/07 07:26:27;;;;;;;15.80;11.80;;;;;;;10.48;89.03;97977.53;4167566;28;20647;-80
2023/04/07 07:28:30;;;;;;;14.93;11.17;;;;;;;10.51;88.69;97977.31;4186558;28;21223;-80
2023/04/07 07:30:33;;;;;;;15.50;12.07;;;;;;;10.50;88.96;97981.66;4182463;28;20712;-79
2023/04/07 07:32:38;;;;;;;14.03;11.00;;;;;;;10.53;88.45;97978.03;4178731;28;20690;-79
2023/04/07 07:34:41;;;;;;;15.50;11.97;;;;;;;10.54;88.37;97980.53;4184138;28;20635;-81
2023/04/07 07:36:44;;;;;;;14.67;12.30;;;;;;;10.60;88.63;97981.84;4182843;28;20666;-81
2023/04/07 07:38:50;;;;;;;15.83;11.30;;;;;;;10.66;87.50;97979.66;4172821;28;21216;-86
2023/04/07 07:40:53;;;;;;;13.80;11.37;;;;;;;10.71;88.66;97979.34;4189610;28;20640;-82
2023/04/07 07:42:56;;;;;;;14.10;11.73;;;;;;;10.80;88.56;97977.72;4188418;28;20646;-79
2023/04/07 07:44:59;;;;;;;13.57;11.03;;;;;;;10.91;87.39;97987.41;4188062;28;20778;-81
2023/04/07 07:47:03;;;;;;;14.83;11.93;;;;;;;11.02;87.40;97987.47;4188537;28;20701;-81
2023/04/07 07:49:07;;;;;;;14.17;11.83;;;;;;;11.17;89.40;97989.84;4206872;28;20651;-82
2023/04/07 07:51:10;;;;;;;15.87;11.87;;;;;;;11.35;88.73;97985.84;4182086;28;20636;-82
2023/04/07 07:53:14;;;;;;;19.93;14.70;;;;;;;11.49;87.34;97990.97;4191533;28;20637;-82
2023/04/07 07:55:17;;;;;;;13.17;11.00;;;;;;;11.62;86.40;97999.53;4189873;28;20740;-82
2023/04/07 07:57:20;;;;;;;14.70;11.70;;;;;;;11.72;85.28;97996.13;4185718;28;20697;-81
2023/04/07 07:59:23;;;;;;;13.80;11.70;;;;;;;11.88;86.88;98002.72;4181282;28;21058;-81
2023/04/07 08:01:27;;;;;;;15.30;11.00;;;;;;;12.04;83.33;98002.41;4188055;28;20635;-81
2023/04/07 08:03:30;;;;;;;13.10;10.80;;;;;;;12.16;83.94;98007.53;4182792;28;20745;-81
2023/04/07 08:05:35;;;;;;;11.63;10.43;;;;;;;12.34;84.39;98006.13;4181781;28;20655;-85
2023/04/07 08:07:38;;;;;;;12.20;10.40;;;;;;;12.55;80.96;98002.69;4188129;28;20643;-85
2023/04/07 08:09:41;;;;;;;13.27;11.00;;;;;;;12.72;81.91;98005.66;4170927;28;20631;-85
2023/04/07 08:11:44;;;;;;;12.03;9.77;;;;;;;12.98;79.59;98004.47;4190417;28;20676;-85
2023/04/07 08:13:47;;;;;;;13.10;9.87;;;;;;;13.20;80.49;98007.88;4183827;28;20671;-85
2023/04/07 08:15:51;;;;;;;12.43;10.73;;;;;;;13.28;78.85;98015.13;4172679;28;20652;-85
2023/04/07 08:17:55;;;;;;;12.60;10.93;;;;;;;13.29;77.58;98009.78;4171379;28;20637;-85
2023/04/07 08:19:58;;;;;;;13.90;11.27;;;;;;;13.27;78.39;98018.69;4169660;28;21023;-85
2023/04/07 08:22:03;;;;;;;12.80;10.83;;;;;;;13.33;79.44;98010.34;4187444;28;20628;-85
2023/04/07 08:24:06;;;;;;;11.70;9.63;;;;;;;13.43;78.99;98019.16;4178127;28;20637;-85
2023/04/07 08:26:09;;;;;;;12.20;10.17;;;;;;;13.50;77.34;98017.66;4177045;28;21256;-85
2023/04/07 08:28:13;;;;;;;11.67;9.90;;;;;;;13.48;77.32;98015.16;4184339;28;20625;-85
2023/04/07 08:30:16;;;;;;;12.93;9.43;;;;;;;13.48;77.97;98020.41;4197418;28;20631;-85
2023/04/07 08:32:19;;;;;;;11.27;9.37;;;;;;;13.51;75.85;98012.31;4187812;28;20631;-85
2023/04/07 08:34:22;;;;;;;11.43;10.23;;;;;;;13.52;75.62;98013.16;4187291;28;20621;-85
2023/04/07 08:36:26;;;;;;;12.07;10.03;;;;;;;13.58;76.79;98010.88;4171105;28;20693;-85
2023/04/07 08:38:31;;;;;;;10.93;9.80;;;;;;;13.62;77.17;98014.91;4194168;28;20654;-85
2023/04/07 08:40:34;;;;;;;10.87;9.67;;;;;;;13.64;77.29;98010.38;4175167;28;20698;-85
2023/04/07 08:42:41;;;;;;;13.00;10.43;;;;;;;13.66;76.79;98009.25;4189387;28;21239;-85
2023/04/07 08:44:45;;;;;;;10.80;9.30;;;;;;;13.68;74.83;98012.63;4175318;28;20728;-85
2023/04/07 08:46:48;;;;;;;11.70;9.53;;;;;;;13.67;74.57;98016.19;4187943;28;20625;-85
2023/04/07 08:48:53;;;;;;;10.60;9.50;;;;;;;13.62;73.66;98011.44;4188120;28;20623;-85
2023/04/07 08:50:56;;;;;;;9.97;8.90;;;;;;;13.59;74.95;98016.94;4196990;28;20634;-85
2023/04/07 08:53:00;;;;;;;11.60;9.70;;;;;;;13.58;75.35;98021.34;4175683;28;20629;-85
2023/04/07 08:55:07;;;;;;;13.27;9.33;;;;;;;13.55;74.42;98020.78;4172587;28;20639;-85
2023/04/07 08:57:11;;;;;;;12.80;10.07;;;;;;;13.52;75.04;98021.03;4193288;28;20653;-85
2023/04/07 08:59:17;;;;;;;10.30;8.70;;;;;;;13.47;73.59;98018.78;4186000;28;20682;-85
2023/04/07 09:01:21;;;;;;;11.07;9.10;;;;;;;13.38;72.70;98016.03;4173298;28;20650;-85
2023/04/07 09:03:26;;;;;;;10.10;8.57;;;;;;;13.48;73.20;98019.59;4185002;28;20829;-85
2023/04/07 09:05:30;;;;;;;11.33;9.20;;;;;;;13.62;74.33;98020.16;4190389;28;20695;-85
2023/04/07 09:07:34;;;;;;;12.70;10.00;;;;;;;13.71;73.17;98024.63;4187425;28;20616;-84
2023/04/07 09:09:37;;;;;;;11.87;9.23;;;;;;;13.86;74.92;98032.06;4190855;28;20670;-85
2023/04/07 09:11:42;;;;;;;10.63;9.53;;;;;;;13.99;74.34;98040.56;4174996;28;20703;-85
2023/04/07 09:13:45;;;;;;;9.93;8.80;;;;;;;14.07;73.86;98037.34;4189034;28;20654;-85
2023/04/07 09:15:49;;;;;;;12.50;9.03;;;;;;;14.13;72.72;98041.16;4185831;28;20664;-85
2023/04/07 09:17:52;;;;;;;10.43;8.73;;;;;;;14.11;72.21;98034.34;4190185;28;21210;-85
2023/04/07 09:19:57;;;;;;;11.23;9.07;;;;;;;14.14;73.37;98039.34;4174754;28;20645;-85
2023/04/07 09:22:00;;;;;;;16.60;9.73;;;;;;;14.19;72.55;98042.41;4174655;28;20700;-85
2023/04/07 09:24:20;;;;;;;10.63;9.53;;;;;;;14.25;73.53;98039.28;4183479;28;20668;-85
2023/04/07 09:26:24;;;;;;;11.17;8.60;;;;;;;14.20;70.86;98037.03;4190628;28;20633;-85
2023/04/07 09:28:41;;;;;;;10.13;8.10;;;;;;;14.18;71.00;98041.59;4183293;28;20726;-85
2023/04/07 09:30:52;;;;;;;11.07;8.93;;;;;;;14.13;70.60;98042.09;4187750;28;20643;-85
2023/04/07 09:32:56;;;;;;;11.20;9.67;;;;;;;14.02;70.55;98050.00;4185021;28;20631;-85
2023/04/07 09:34:59;;;;;;;14.63;8.80;;;;;;;13.93;70.72;98035.00;4171492;28;20651;-85
2023/04/07 09:37:03;;;;;;;12.20;10.30;;;;;;;13.91;72.38;98044.81;4162133;28;20665;-85
2023/04/07 09:39:09;;;;;;;10.90;8.70;;;;;;;13.90;73.01;98038.72;4183009;28;20633;-84
2023/04/07 09:41:13;;;;;;;11.30;9.67;;;;;;;13.94;72.88;98042.75;4178051;28;21238;-85
2023/04/07 09:43:19;;;;;;;10.70;8.73;;;;;;;14.02;72.91;98042.13;4181791;28;20902;-84
2023/04/07 09:45:27;;;;;;;10.93;8.80;;;;;;;14.00;71.73;98047.50;4180580;28;20634;-85